sensor_id;sensor_type;location;lat;lon;timestamp;P1;durP1;ratioP1;P2;durP2;ratioP2
65710;SDS011;52690;54.496;9.030;2023-02-13T00:00:50;8.88;;;4.25;;
65710;SDS011;52690;54.496;9.030;2023-02-13T00:02:50;4.47;;;4.07;;
65710;SDS011;52690;54.496;9.030;2023-02-13T00:04:51;6.73;;;4.53;;
65710;SDS011;52690;54.496;9.030;2023-02-13T00:06:51;5.90;;;4.23;;
65710;SDS011;52690;54.496;9.030;2023-02-13T00:08:52;8.47;;;4.13;;
65710;SDS011;52690;54.496;9.030;2023-02-13T00:10:52;4.82;;;4.35;;
65710;SDS011;52690;54.496;9.030;2023-02-13T00:12:53;5.07;;;4.23;;
65710;SDS011;52690;54.496;9.030;2023-02-13T00:14:53;5.30;;;4.60;;
65710;SDS011;52690;54.496;9.030;2023-02-13T00:16:53;5.77;;;4.00;;
65710;SDS011;52690;54.496;9.030;2023-02-13T00:18:53;5.27;;;4.77;;
65710;SDS011;52690;54.496;9.030;2023-02-13T00:21:00;5.20;;;4.60;;
65710;SDS011;52690;54.496;9.030;2023-02-13T00:23:00;5.07;;;4.50;;
65710;SDS011;52690;54.496;9.030;2023-02-13T00:25:02;5.45;;;4.50;;
65710;SDS011;52690;54.496;9.030;2023-02-13T00:27:02;6.55;;;4.57;;
65710;SDS011;52690;54.496;9.030;2023-02-13T00:29:02;6.37;;;4.60;;
65710;SDS011;52690;54.496;9.030;2023-02-13T00:31:03;4.73;;;4.33;;
65710;SDS011;52690;54.496;9.030;2023-02-13T00:33:03;8.20;;;4.72;;
65710;SDS011;52690;54.496;9.030;2023-02-13T00:35:04;5.57;;;5.03;;
65710;SDS011;52690;54.496;9.030;2023-02-13T00:37:04;6.03;;;4.95;;
65710;SDS011;52690;54.496;9.030;2023-02-13T00:39:04;6.23;;;5.43;;
65710;SDS011;52690;54.496;9.030;2023-02-13T00:41:06;5.73;;;4.73;;
65710;SDS011;52690;54.496;9.030;2023-02-13T00:43:06;6.60;;;5.18;;
65710;SDS011;52690;54.496;9.030;2023-02-13T00:45:07;6.53;;;4.87;;
65710;SDS011;52690;54.496;9.030;2023-02-13T00:47:07;5.47;;;4.97;;
65710;SDS011;52690;54.496;9.030;2023-02-13T00:49:07;5.73;;;5.20;;
65710;SDS011;52690;54.496;9.030;2023-02-13T00:51:08;7.22;;;5.18;;
65710;SDS011;52690;54.496;9.030;2023-02-13T00:53:08;10.45;;;5.53;;
65710;SDS011;52690;54.496;9.030;2023-02-13T00:55:08;6.03;;;5.43;;
65710;SDS011;52690;54.496;9.030;2023-02-13T00:57:10;6.37;;;4.93;;
65710;SDS011;52690;54.496;9.030;2023-02-13T00:59:10;6.53;;;5.82;;
65710;SDS011;52690;54.496;9.030;2023-02-13T01:01:10;6.40;;;5.10;;
65710;SDS011;52690;54.496;9.030;2023-02-13T01:03:10;6.07;;;5.50;;
65710;SDS011;52690;54.496;9.030;2023-02-13T01:05:10;7.73;;;5.70;;
65710;SDS011;52690;54.496;9.030;2023-02-13T01:07:10;7.50;;;5.50;;
65710;SDS011;52690;54.496;9.030;2023-02-13T01:09:11;7.20;;;6.47;;
65710;SDS011;52690;54.496;9.030;2023-02-13T01:11:11;9.57;;;6.20;;
65710;SDS011;52690;54.496;9.030;2023-02-13T01:13:13;7.63;;;6.40;;
65710;SDS011;52690;54.496;9.030;2023-02-13T01:15:13;7.40;;;6.70;;
65710;SDS011;52690;54.496;9.030;2023-02-13T01:17:13;9.13;;;7.03;;
65710;SDS011;52690;54.496;9.030;2023-02-13T01:19:15;8.60;;;6.90;;
65710;SDS011;52690;54.496;9.030;2023-02-13T01:21:15;8.23;;;6.80;;
65710;SDS011;52690;54.496;9.030;2023-02-13T01:23:16;11.18;;;7.85;;
65710;SDS011;52690;54.496;9.030;2023-02-13T01:25:16;10.37;;;7.80;;
65710;SDS011;52690;54.496;9.030;2023-02-13T01:27:16;9.33;;;7.23;;
65710;SDS011;52690;54.496;9.030;2023-02-13T01:29:18;10.30;;;8.00;;
65710;SDS011;52690;54.496;9.030;2023-02-13T01:31:18;9.43;;;7.35;;
65710;SDS011;52690;54.496;9.030;2023-02-13T01:33:18;8.77;;;6.93;;
65710;SDS011;52690;54.496;9.030;2023-02-13T01:35:18;7.78;;;6.43;;
65710;SDS011;52690;54.496;9.030;2023-02-13T01:37:18;11.00;;;6.20;;
65710;SDS011;52690;54.496;9.030;2023-02-13T01:39:18;9.43;;;6.10;;
65710;SDS011;52690;54.496;9.030;2023-02-13T01:41:19;6.00;;;4.93;;
65710;SDS011;52690;54.496;9.030;2023-02-13T01:43:19;5.83;;;4.90;;
65710;SDS011;52690;54.496;9.030;2023-02-13T01:45:23;5.43;;;4.93;;
65710;SDS011;52690;54.496;9.030;2023-02-13T01:47:24;5.60;;;5.05;;
65710;SDS011;52690;54.496;9.030;2023-02-13T01:49:25;6.72;;;4.97;;
65710;SDS011;52690;54.496;9.030;2023-02-13T01:51:25;5.50;;;4.90;;
65710;SDS011;52690;54.496;9.030;2023-02-13T01:53:28;6.22;;;5.05;;
65710;SDS011;52690;54.496;9.030;2023-02-13T01:55:30;5.97;;;5.25;;
65710;SDS011;52690;54.496;9.030;2023-02-13T01:57:31;7.97;;;5.53;;
65710;SDS011;52690;54.496;9.030;2023-02-13T01:59:32;6.22;;;5.18;;
65710;SDS011;52690;54.496;9.030;2023-02-13T02:01:35;8.05;;;5.72;;
65710;SDS011;52690;54.496;9.030;2023-02-13T02:03:36;8.20;;;6.22;;
65710;SDS011;52690;54.496;9.030;2023-02-13T02:05:37;10.07;;;6.95;;
65710;SDS011;52690;54.496;9.030;2023-02-13T02:07:38;7.63;;;6.35;;
65710;SDS011;52690;54.496;9.030;2023-02-13T02:09:39;8.45;;;6.55;;
65710;SDS011;52690;54.496;9.030;2023-02-13T02:11:43;8.07;;;6.97;;
65710;SDS011;52690;54.496;9.030;2023-02-13T02:13:44;7.43;;;6.72;;
65710;SDS011;52690;54.496;9.030;2023-02-13T02:15:45;9.68;;;6.82;;
65710;SDS011;52690;54.496;9.030;2023-02-13T02:17:47;7.30;;;6.53;;
65710;SDS011;52690;54.496;9.030;2023-02-13T02:19:48;10.07;;;7.32;;
65710;SDS011;52690;54.496;9.030;2023-02-13T02:21:58;8.88;;;7.25;;
65710;SDS011;52690;54.496;9.030;2023-02-13T02:24:22;10.13;;;7.82;;
65710;SDS011;52690;54.496;9.030;2023-02-13T02:26:36;9.60;;;7.20;;
65710;SDS011;52690;54.496;9.030;2023-02-13T02:28:51;10.93;;;7.97;;
65710;SDS011;52690;54.496;9.030;2023-02-13T02:31:03;9.30;;;8.00;;
65710;SDS011;52690;54.496;9.030;2023-02-13T02:33:14;9.63;;;7.82;;
65710;SDS011;52690;54.496;9.030;2023-02-13T02:35:20;9.05;;;7.47;;
65710;SDS011;52690;54.496;9.030;2023-02-13T02:37:26;11.27;;;7.70;;
65710;SDS011;52690;54.496;9.030;2023-02-13T02:39:29;9.38;;;7.63;;
65710;SDS011;52690;54.496;9.030;2023-02-13T02:41:33;10.13;;;8.13;;
65710;SDS011;52690;54.496;9.030;2023-02-13T02:43:39;9.32;;;8.38;;
65710;SDS011;52690;54.496;9.030;2023-02-13T02:45:45;10.05;;;8.15;;
65710;SDS011;52690;54.496;9.030;2023-02-13T02:47:49;11.77;;;8.05;;
65710;SDS011;52690;54.496;9.030;2023-02-13T02:49:54;10.32;;;8.15;;
65710;SDS011;52690;54.496;9.030;2023-02-13T02:52:00;13.30;;;8.30;;
65710;SDS011;52690;54.496;9.030;2023-02-13T02:54:06;10.60;;;8.27;;
65710;SDS011;52690;54.496;9.030;2023-02-13T02:56:10;14.13;;;8.30;;
65710;SDS011;52690;54.496;9.030;2023-02-13T02:58:14;10.35;;;8.27;;
65710;SDS011;52690;54.496;9.030;2023-02-13T03:00:15;13.95;;;9.15;;
65710;SDS011;52690;54.496;9.030;2023-02-13T03:02:16;11.52;;;8.70;;
65710;SDS011;52690;54.496;9.030;2023-02-13T03:04:18;12.40;;;8.43;;
65710;SDS011;52690;54.496;9.030;2023-02-13T03:06:21;11.80;;;9.45;;
65710;SDS011;52690;54.496;9.030;2023-02-13T03:08:23;12.43;;;9.25;;
65710;SDS011;52690;54.496;9.030;2023-02-13T03:10:26;11.02;;;8.93;;
65710;SDS011;52690;54.496;9.030;2023-02-13T03:12:28;10.25;;;8.77;;
65710;SDS011;52690;54.496;9.030;2023-02-13T03:14:29;12.55;;;8.82;;
65710;SDS011;52690;54.496;9.030;2023-02-13T03:16:29;12.90;;;8.43;;
65710;SDS011;52690;54.496;9.030;2023-02-13T03:18:30;12.85;;;8.88;;
65710;SDS011;52690;54.496;9.030;2023-02-13T03:20:33;11.85;;;8.57;;
65710;SDS011;52690;54.496;9.030;2023-02-13T03:22:39;16.08;;;9.38;;
65710;SDS011;52690;54.496;9.030;2023-02-13T03:24:43;11.38;;;8.77;;
65710;SDS011;52690;54.496;9.030;2023-02-13T03:26:46;12.85;;;9.43;;
65710;SDS011;52690;54.496;9.030;2023-02-13T03:28:49;9.95;;;8.20;;
65710;SDS011;52690;54.496;9.030;2023-02-13T03:30:55;15.27;;;8.63;;
65710;SDS011;52690;54.496;9.030;2023-02-13T03:32:59;13.15;;;9.30;;
65710;SDS011;52690;54.496;9.030;2023-02-13T03:35:08;12.55;;;9.68;;
65710;SDS011;52690;54.496;9.030;2023-02-13T03:37:11;12.70;;;9.65;;
65710;SDS011;52690;54.496;9.030;2023-02-13T03:39:16;15.27;;;10.40;;
65710;SDS011;52690;54.496;9.030;2023-02-13T03:41:17;12.10;;;9.70;;
65710;SDS011;52690;54.496;9.030;2023-02-13T03:43:19;12.73;;;9.52;;
65710;SDS011;52690;54.496;9.030;2023-02-13T03:45:20;14.88;;;10.50;;
65710;SDS011;52690;54.496;9.030;2023-02-13T03:47:21;14.20;;;10.00;;
65710;SDS011;52690;54.496;9.030;2023-02-13T03:49:23;14.37;;;10.20;;
65710;SDS011;52690;54.496;9.030;2023-02-13T03:51:26;12.90;;;9.93;;
65710;SDS011;52690;54.496;9.030;2023-02-13T03:53:27;13.10;;;9.38;;
65710;SDS011;52690;54.496;9.030;2023-02-13T03:55:31;14.52;;;9.73;;
65710;SDS011;52690;54.496;9.030;2023-02-13T03:57:32;13.40;;;9.02;;
65710;SDS011;52690;54.496;9.030;2023-02-13T03:59:34;14.48;;;9.23;;
65710;SDS011;52690;54.496;9.030;2023-02-13T04:01:35;13.25;;;8.52;;
65710;SDS011;52690;54.496;9.030;2023-02-13T04:03:36;14.77;;;10.25;;
65710;SDS011;52690;54.496;9.030;2023-02-13T04:05:40;13.80;;;8.93;;
65710;SDS011;52690;54.496;9.030;2023-02-13T04:07:42;13.13;;;9.15;;
65710;SDS011;52690;54.496;9.030;2023-02-13T04:09:42;10.73;;;8.30;;
65710;SDS011;52690;54.496;9.030;2023-02-13T04:11:45;10.43;;;8.23;;
65710;SDS011;52690;54.496;9.030;2023-02-13T04:13:48;12.48;;;8.30;;
65710;SDS011;52690;54.496;9.030;2023-02-13T04:15:52;10.73;;;8.48;;
65710;SDS011;52690;54.496;9.030;2023-02-13T04:17:56;9.90;;;7.72;;
65710;SDS011;52690;54.496;9.030;2023-02-13T04:19:58;12.43;;;8.88;;
65710;SDS011;52690;54.496;9.030;2023-02-13T04:21:58;11.57;;;8.73;;
65710;SDS011;52690;54.496;9.030;2023-02-13T04:23:59;11.02;;;8.23;;
65710;SDS011;52690;54.496;9.030;2023-02-13T04:25:59;12.13;;;8.47;;
65710;SDS011;52690;54.496;9.030;2023-02-13T04:28:02;13.23;;;7.78;;
65710;SDS011;52690;54.496;9.030;2023-02-13T04:30:03;12.68;;;8.27;;
65710;SDS011;52690;54.496;9.030;2023-02-13T04:32:03;12.25;;;8.25;;
65710;SDS011;52690;54.496;9.030;2023-02-13T04:34:03;11.77;;;8.13;;
65710;SDS011;52690;54.496;9.030;2023-02-13T04:36:04;9.77;;;7.70;;
65710;SDS011;52690;54.496;9.030;2023-02-13T04:38:04;11.18;;;8.57;;
65710;SDS011;52690;54.496;9.030;2023-02-13T04:40:05;10.30;;;8.37;;
65710;SDS011;52690;54.496;9.030;2023-02-13T04:42:05;10.77;;;8.57;;
65710;SDS011;52690;54.496;9.030;2023-02-13T04:44:06;11.30;;;8.80;;
65710;SDS011;52690;54.496;9.030;2023-02-13T04:46:07;11.63;;;8.27;;
65710;SDS011;52690;54.496;9.030;2023-02-13T04:48:07;10.85;;;7.97;;
65710;SDS011;52690;54.496;9.030;2023-02-13T04:50:07;10.13;;;7.53;;
65710;SDS011;52690;54.496;9.030;2023-02-13T04:52:08;14.18;;;7.35;;
65710;SDS011;52690;54.496;9.030;2023-02-13T04:54:09;11.00;;;7.27;;
65710;SDS011;52690;54.496;9.030;2023-02-13T04:56:09;7.63;;;6.50;;
65710;SDS011;52690;54.496;9.030;2023-02-13T04:58:09;10.53;;;6.80;;
65710;SDS011;52690;54.496;9.030;2023-02-13T05:00:11;10.93;;;6.97;;
65710;SDS011;52690;54.496;9.030;2023-02-13T05:02:12;9.98;;;7.32;;
65710;SDS011;52690;54.496;9.030;2023-02-13T05:04:12;9.10;;;8.00;;
65710;SDS011;52690;54.496;9.030;2023-02-13T05:06:12;9.27;;;7.47;;
65710;SDS011;52690;54.496;9.030;2023-02-13T05:08:12;12.25;;;8.10;;
65710;SDS011;52690;54.496;9.030;2023-02-13T05:10:12;10.60;;;6.87;;
65710;SDS011;52690;54.496;9.030;2023-02-13T05:12:12;11.37;;;6.83;;
65710;SDS011;52690;54.496;9.030;2023-02-13T05:14:13;9.25;;;6.55;;
65710;SDS011;52690;54.496;9.030;2023-02-13T05:16:14;8.70;;;5.93;;
65710;SDS011;52690;54.496;9.030;2023-02-13T05:18:14;8.70;;;6.57;;
65710;SDS011;52690;54.496;9.030;2023-02-13T05:20:15;7.27;;;5.47;;
65710;SDS011;52690;54.496;9.030;2023-02-13T05:22:15;9.80;;;5.53;;
65710;SDS011;52690;54.496;9.030;2023-02-13T05:24:15;6.33;;;5.53;;
65710;SDS011;52690;54.496;9.030;2023-02-13T05:26:15;8.97;;;5.30;;
65710;SDS011;52690;54.496;9.030;2023-02-13T05:28:15;7.70;;;5.23;;
65710;SDS011;52690;54.496;9.030;2023-02-13T05:30:15;7.93;;;5.93;;
65710;SDS011;52690;54.496;9.030;2023-02-13T05:32:17;7.20;;;5.57;;
65710;SDS011;52690;54.496;9.030;2023-02-13T05:34:17;7.88;;;5.85;;
65710;SDS011;52690;54.496;9.030;2023-02-13T05:36:17;8.23;;;5.72;;
65710;SDS011;52690;54.496;9.030;2023-02-13T05:38:18;8.03;;;5.70;;
65710;SDS011;52690;54.496;9.030;2023-02-13T05:40:18;9.57;;;5.43;;
65710;SDS011;52690;54.496;9.030;2023-02-13T05:42:18;10.45;;;6.05;;
65710;SDS011;52690;54.496;9.030;2023-02-13T05:44:18;7.53;;;5.57;;
65710;SDS011;52690;54.496;9.030;2023-02-13T05:46:18;5.90;;;5.33;;
65710;SDS011;52690;54.496;9.030;2023-02-13T05:48:20;14.23;;;6.90;;
65710;SDS011;52690;54.496;9.030;2023-02-13T05:50:20;7.10;;;5.80;;
65710;SDS011;52690;54.496;9.030;2023-02-13T05:52:20;8.83;;;5.97;;
65710;SDS011;52690;54.496;9.030;2023-02-13T05:54:20;6.23;;;5.23;;
65710;SDS011;52690;54.496;9.030;2023-02-13T05:56:21;7.30;;;5.17;;
65710;SDS011;52690;54.496;9.030;2023-02-13T05:58:21;6.45;;;5.25;;
65710;SDS011;52690;54.496;9.030;2023-02-13T06:00:21;4.83;;;4.43;;
65710;SDS011;52690;54.496;9.030;2023-02-13T06:02:21;6.20;;;4.82;;
65710;SDS011;52690;54.496;9.030;2023-02-13T06:04:23;6.93;;;5.47;;
65710;SDS011;52690;54.496;9.030;2023-02-13T06:06:23;6.45;;;4.10;;
65710;SDS011;52690;54.496;9.030;2023-02-13T06:08:24;5.07;;;4.13;;
65710;SDS011;52690;54.496;9.030;2023-02-13T06:10:24;8.15;;;4.80;;
65710;SDS011;52690;54.496;9.030;2023-02-13T06:12:24;6.90;;;4.70;;
65710;SDS011;52690;54.496;9.030;2023-02-13T06:14:24;4.80;;;4.27;;
65710;SDS011;52690;54.496;9.030;2023-02-13T06:16:25;6.25;;;5.13;;
65710;SDS011;52690;54.496;9.030;2023-02-13T06:18:25;6.67;;;4.93;;
65710;SDS011;52690;54.496;9.030;2023-02-13T06:20:26;6.90;;;5.30;;
65710;SDS011;52690;54.496;9.030;2023-02-13T06:22:26;5.85;;;5.20;;
65710;SDS011;52690;54.496;9.030;2023-02-13T06:24:27;7.10;;;5.50;;
65710;SDS011;52690;54.496;9.030;2023-02-13T06:26:27;4.87;;;4.47;;
65710;SDS011;52690;54.496;9.030;2023-02-13T06:28:27;8.13;;;5.10;;
65710;SDS011;52690;54.496;9.030;2023-02-13T06:30:27;6.47;;;4.77;;
65710;SDS011;52690;54.496;9.030;2023-02-13T06:32:27;5.97;;;4.93;;
65710;SDS011;52690;54.496;9.030;2023-02-13T06:34:27;5.73;;;4.77;;
65710;SDS011;52690;54.496;9.030;2023-02-13T06:36:29;7.63;;;5.07;;
65710;SDS011;52690;54.496;9.030;2023-02-13T06:38:29;7.63;;;5.05;;
65710;SDS011;52690;54.496;9.030;2023-02-13T06:40:29;6.60;;;5.13;;
65710;SDS011;52690;54.496;9.030;2023-02-13T06:42:29;6.50;;;5.33;;
65710;SDS011;52690;54.496;9.030;2023-02-13T06:44:29;9.03;;;5.80;;
65710;SDS011;52690;54.496;9.030;2023-02-13T06:46:30;9.30;;;5.47;;
65710;SDS011;52690;54.496;9.030;2023-02-13T06:48:30;6.88;;;5.30;;
65710;SDS011;52690;54.496;9.030;2023-02-13T06:50:30;7.23;;;5.60;;
65710;SDS011;52690;54.496;9.030;2023-02-13T06:52:31;7.43;;;5.23;;
65710;SDS011;52690;54.496;9.030;2023-02-13T06:54:32;7.68;;;5.35;;
65710;SDS011;52690;54.496;9.030;2023-02-13T06:56:32;8.33;;;5.63;;
65710;SDS011;52690;54.496;9.030;2023-02-13T06:58:32;9.20;;;5.40;;
65710;SDS011;52690;54.496;9.030;2023-02-13T07:00:32;8.65;;;5.95;;
65710;SDS011;52690;54.496;9.030;2023-02-13T07:02:32;6.50;;;5.07;;
65710;SDS011;52690;54.496;9.030;2023-02-13T07:04:33;8.90;;;6.13;;
65710;SDS011;52690;54.496;9.030;2023-02-13T07:06:33;8.27;;;6.13;;
65710;SDS011;52690;54.496;9.030;2023-02-13T07:08:34;8.43;;;5.87;;
65710;SDS011;52690;54.496;9.030;2023-02-13T07:10:35;8.93;;;6.45;;
65710;SDS011;52690;54.496;9.030;2023-02-13T07:12:36;7.72;;;6.10;;
65710;SDS011;52690;54.496;9.030;2023-02-13T07:14:36;8.90;;;6.47;;
65710;SDS011;52690;54.496;9.030;2023-02-13T07:16:36;17.30;;;6.70;;
65710;SDS011;52690;54.496;9.030;2023-02-13T07:18:36;11.13;;;6.57;;
65710;SDS011;52690;54.496;9.030;2023-02-13T07:20:37;8.90;;;6.40;;
65710;SDS011;52690;54.496;9.030;2023-02-13T07:22:37;9.17;;;6.77;;
65710;SDS011;52690;54.496;9.030;2023-02-13T07:24:38;8.43;;;6.30;;
65710;SDS011;52690;54.496;9.030;2023-02-13T07:26:38;8.00;;;6.45;;
65710;SDS011;52690;54.496;9.030;2023-02-13T07:28:38;9.83;;;6.37;;
65710;SDS011;52690;54.496;9.030;2023-02-13T07:30:39;10.83;;;6.70;;
65710;SDS011;52690;54.496;9.030;2023-02-13T07:32:39;8.93;;;6.13;;
65710;SDS011;52690;54.496;9.030;2023-02-13T07:34:39;8.30;;;6.23;;
65710;SDS011;52690;54.496;9.030;2023-02-13T07:36:39;16.97;;;5.40;;
65710;SDS011;52690;54.496;9.030;2023-02-13T07:38:39;8.30;;;5.60;;
65710;SDS011;52690;54.496;9.030;2023-02-13T07:40:41;9.73;;;6.00;;
65710;SDS011;52690;54.496;9.030;2023-02-13T07:42:41;7.13;;;6.25;;
65710;SDS011;52690;54.496;9.030;2023-02-13T07:44:41;8.97;;;6.20;;
65710;SDS011;52690;54.496;9.030;2023-02-13T07:46:41;7.70;;;5.83;;
65710;SDS011;52690;54.496;9.030;2023-02-13T07:48:42;6.93;;;6.03;;
65710;SDS011;52690;54.496;9.030;2023-02-13T07:50:42;9.97;;;5.97;;
65710;SDS011;52690;54.496;9.030;2023-02-13T07:52:42;6.57;;;5.67;;
65710;SDS011;52690;54.496;9.030;2023-02-13T07:54:42;10.23;;;5.90;;
65710;SDS011;52690;54.496;9.030;2023-02-13T07:56:43;10.53;;;5.93;;
65710;SDS011;52690;54.496;9.030;2023-02-13T07:58:44;7.95;;;5.80;;
65710;SDS011;52690;54.496;9.030;2023-02-13T08:00:44;6.78;;;4.85;;
65710;SDS011;52690;54.496;9.030;2023-02-13T08:02:44;6.30;;;5.20;;
65710;SDS011;52690;54.496;9.030;2023-02-13T08:04:44;5.47;;;4.77;;
65710;SDS011;52690;54.496;9.030;2023-02-13T08:06:44;7.23;;;5.17;;
65710;SDS011;52690;54.496;9.030;2023-02-13T08:08:44;9.53;;;5.63;;
65710;SDS011;52690;54.496;9.030;2023-02-13T08:10:45;7.73;;;5.30;;
65710;SDS011;52690;54.496;9.030;2023-02-13T08:12:46;9.63;;;4.90;;
65710;SDS011;52690;54.496;9.030;2023-02-13T08:14:46;7.25;;;5.45;;
65710;SDS011;52690;54.496;9.030;2023-02-13T08:16:47;9.30;;;5.50;;
65710;SDS011;52690;54.496;9.030;2023-02-13T08:18:47;9.10;;;5.60;;
65710;SDS011;52690;54.496;9.030;2023-02-13T08:20:47;8.87;;;4.70;;
65710;SDS011;52690;54.496;9.030;2023-02-13T08:22:47;8.30;;;5.57;;
65710;SDS011;52690;54.496;9.030;2023-02-13T08:24:47;8.30;;;5.23;;
65710;SDS011;52690;54.496;9.030;2023-02-13T08:26:47;7.20;;;5.47;;
65710;SDS011;52690;54.496;9.030;2023-02-13T08:28:49;7.57;;;5.90;;
65710;SDS011;52690;54.496;9.030;2023-02-13T08:30:49;7.85;;;5.72;;
65710;SDS011;52690;54.496;9.030;2023-02-13T08:32:49;6.70;;;5.60;;
65710;SDS011;52690;54.496;9.030;2023-02-13T08:34:49;7.15;;;5.72;;
65710;SDS011;52690;54.496;9.030;2023-02-13T08:36:49;8.20;;;6.50;;
65710;SDS011;52690;54.496;9.030;2023-02-13T08:38:50;9.33;;;6.27;;
65710;SDS011;52690;54.496;9.030;2023-02-13T08:40:50;8.70;;;6.38;;
65710;SDS011;52690;54.496;9.030;2023-02-13T08:42:50;10.73;;;6.60;;
65710;SDS011;52690;54.496;9.030;2023-02-13T08:44:52;10.63;;;6.50;;
65710;SDS011;52690;54.496;9.030;2023-02-13T08:46:52;10.32;;;7.05;;
65710;SDS011;52690;54.496;9.030;2023-02-13T08:48:52;10.73;;;8.33;;
65710;SDS011;52690;54.496;9.030;2023-02-13T08:50:53;11.30;;;7.68;;
65710;SDS011;52690;54.496;9.030;2023-02-13T08:52:53;11.17;;;7.23;;
65710;SDS011;52690;54.496;9.030;2023-02-13T08:54:53;8.47;;;6.57;;
65710;SDS011;52690;54.496;9.030;2023-02-13T08:56:53;15.27;;;7.80;;
65710;SDS011;52690;54.496;9.030;2023-02-13T08:58:54;9.63;;;7.25;;
65710;SDS011;52690;54.496;9.030;2023-02-13T09:00:55;10.32;;;7.22;;
65710;SDS011;52690;54.496;9.030;2023-02-13T09:02:58;12.63;;;7.80;;
65710;SDS011;52690;54.496;9.030;2023-02-13T09:04:59;11.52;;;7.85;;
65710;SDS011;52690;54.496;9.030;2023-02-13T09:06:59;11.30;;;8.37;;
65710;SDS011;52690;54.496;9.030;2023-02-13T09:08:59;12.03;;;8.23;;
65710;SDS011;52690;54.496;9.030;2023-02-13T09:11:00;11.33;;;7.87;;
65710;SDS011;52690;54.496;9.030;2023-02-13T09:13:00;11.05;;;7.30;;
65710;SDS011;52690;54.496;9.030;2023-02-13T09:15:00;14.95;;;8.23;;
65710;SDS011;52690;54.496;9.030;2023-02-13T09:17:02;9.80;;;7.80;;
65710;SDS011;52690;54.496;9.030;2023-02-13T09:19:02;9.90;;;7.07;;
65710;SDS011;52690;54.496;9.030;2023-02-13T09:21:03;9.40;;;7.15;;
65710;SDS011;52690;54.496;9.030;2023-02-13T09:23:04;9.85;;;7.45;;
65710;SDS011;52690;54.496;9.030;2023-02-13T09:25:04;12.73;;;7.53;;
65710;SDS011;52690;54.496;9.030;2023-02-13T09:27:04;12.05;;;8.02;;
65710;SDS011;52690;54.496;9.030;2023-02-13T09:29:04;11.37;;;8.13;;
65710;SDS011;52690;54.496;9.030;2023-02-13T09:31:05;14.10;;;7.57;;
65710;SDS011;52690;54.496;9.030;2023-02-13T09:33:09;11.38;;;7.47;;
65710;SDS011;52690;54.496;9.030;2023-02-13T09:35:09;10.13;;;8.02;;
65710;SDS011;52690;54.496;9.030;2023-02-13T09:37:09;14.90;;;7.97;;
65710;SDS011;52690;54.496;9.030;2023-02-13T09:39:10;11.43;;;7.80;;
65710;SDS011;52690;54.496;9.030;2023-02-13T09:41:10;13.70;;;8.10;;
65710;SDS011;52690;54.496;9.030;2023-02-13T09:43:12;13.77;;;8.60;;
65710;SDS011;52690;54.496;9.030;2023-02-13T09:45:13;10.98;;;7.85;;
65710;SDS011;52690;54.496;9.030;2023-02-13T09:47:16;15.40;;;8.73;;
65710;SDS011;52690;54.496;9.030;2023-02-13T09:49:19;13.10;;;8.40;;
65710;SDS011;52690;54.496;9.030;2023-02-13T09:51:22;13.80;;;8.60;;
65710;SDS011;52690;54.496;9.030;2023-02-13T09:53:24;13.55;;;8.30;;
65710;SDS011;52690;54.496;9.030;2023-02-13T09:55:26;12.48;;;7.93;;
65710;SDS011;52690;54.496;9.030;2023-02-13T09:57:30;14.73;;;9.13;;
65710;SDS011;52690;54.496;9.030;2023-02-13T09:59:35;10.85;;;8.20;;
65710;SDS011;52690;54.496;9.030;2023-02-13T10:01:40;10.20;;;7.60;;
65710;SDS011;52690;54.496;9.030;2023-02-13T10:03:43;10.75;;;7.57;;
65710;SDS011;52690;54.496;9.030;2023-02-13T10:06:01;18.00;;;7.50;;
65710;SDS011;52690;54.496;9.030;2023-02-13T10:08:05;10.52;;;7.53;;
65710;SDS011;52690;54.496;9.030;2023-02-13T10:10:11;10.20;;;7.43;;
65710;SDS011;52690;54.496;9.030;2023-02-13T10:12:19;13.75;;;7.82;;
65710;SDS011;52690;54.496;9.030;2023-02-13T10:14:22;10.32;;;7.70;;
65710;SDS011;52690;54.496;9.030;2023-02-13T10:16:23;11.43;;;7.32;;
65710;SDS011;52690;54.496;9.030;2023-02-13T10:18:27;10.20;;;7.28;;
65710;SDS011;52690;54.496;9.030;2023-02-13T10:20:30;14.70;;;8.10;;
65710;SDS011;52690;54.496;9.030;2023-02-13T10:22:34;10.23;;;7.78;;
65710;SDS011;52690;54.496;9.030;2023-02-13T10:24:38;11.20;;;6.90;;
65710;SDS011;52690;54.496;9.030;2023-02-13T10:26:39;13.35;;;7.40;;
65710;SDS011;52690;54.496;9.030;2023-02-13T10:28:41;11.68;;;7.38;;
65710;SDS011;52690;54.496;9.030;2023-02-13T10:30:45;9.27;;;7.40;;
65710;SDS011;52690;54.496;9.030;2023-02-13T10:32:49;10.35;;;7.15;;
65710;SDS011;52690;54.496;9.030;2023-02-13T10:34:51;12.05;;;6.95;;
65710;SDS011;52690;54.496;9.030;2023-02-13T10:36:52;9.93;;;7.55;;
65710;SDS011;52690;54.496;9.030;2023-02-13T10:38:56;13.00;;;8.20;;
65710;SDS011;52690;54.496;9.030;2023-02-13T10:41:03;8.70;;;6.95;;
65710;SDS011;52690;54.496;9.030;2023-02-13T10:43:05;10.35;;;7.28;;
65710;SDS011;52690;54.496;9.030;2023-02-13T10:45:10;12.18;;;8.00;;
65710;SDS011;52690;54.496;9.030;2023-02-13T10:47:22;9.27;;;7.55;;
65710;SDS011;52690;54.496;9.030;2023-02-13T10:49:28;9.07;;;6.97;;
65710;SDS011;52690;54.496;9.030;2023-02-13T10:51:32;11.10;;;7.78;;
65710;SDS011;52690;54.496;9.030;2023-02-13T10:53:39;8.90;;;6.72;;
65710;SDS011;52690;54.496;9.030;2023-02-13T10:55:48;12.32;;;7.72;;
65710;SDS011;52690;54.496;9.030;2023-02-13T10:57:57;11.18;;;7.43;;
65710;SDS011;52690;54.496;9.030;2023-02-13T11:00:02;10.10;;;7.45;;
65710;SDS011;52690;54.496;9.030;2023-02-13T11:02:08;11.43;;;7.72;;
65710;SDS011;52690;54.496;9.030;2023-02-13T11:04:13;9.65;;;7.15;;
65710;SDS011;52690;54.496;9.030;2023-02-13T11:06:13;11.55;;;7.22;;
65710;SDS011;52690;54.496;9.030;2023-02-13T11:08:16;8.80;;;6.88;;
65710;SDS011;52690;54.496;9.030;2023-02-13T11:10:18;11.02;;;7.45;;
65710;SDS011;52690;54.496;9.030;2023-02-13T11:12:23;10.45;;;6.65;;
65710;SDS011;52690;54.496;9.030;2023-02-13T11:14:24;9.80;;;6.40;;
65710;SDS011;52690;54.496;9.030;2023-02-13T11:16:25;9.88;;;6.30;;
65710;SDS011;52690;54.496;9.030;2023-02-13T11:18:26;9.32;;;6.10;;
65710;SDS011;52690;54.496;9.030;2023-02-13T11:20:29;9.38;;;6.28;;
65710;SDS011;52690;54.496;9.030;2023-02-13T11:22:30;9.55;;;6.70;;
65710;SDS011;52690;54.496;9.030;2023-02-13T11:24:31;9.23;;;6.05;;
65710;SDS011;52690;54.496;9.030;2023-02-13T11:26:32;7.28;;;6.15;;
65710;SDS011;52690;54.496;9.030;2023-02-13T11:28:34;8.27;;;6.40;;
65710;SDS011;52690;54.496;9.030;2023-02-13T11:30:36;10.57;;;6.20;;
65710;SDS011;52690;54.496;9.030;2023-02-13T11:32:36;7.60;;;5.63;;
65710;SDS011;52690;54.496;9.030;2023-02-13T11:34:36;9.45;;;5.85;;
65710;SDS011;52690;54.496;9.030;2023-02-13T11:36:37;7.47;;;5.65;;
65710;SDS011;52690;54.496;9.030;2023-02-13T11:38:37;8.07;;;5.73;;
65710;SDS011;52690;54.496;9.030;2023-02-13T11:40:37;9.20;;;5.23;;
65710;SDS011;52690;54.496;9.030;2023-02-13T11:42:40;8.32;;;5.85;;
65710;SDS011;52690;54.496;9.030;2023-02-13T11:44:43;8.57;;;5.63;;
65710;SDS011;52690;54.496;9.030;2023-02-13T11:46:47;6.72;;;5.55;;
65710;SDS011;52690;54.496;9.030;2023-02-13T11:48:55;8.23;;;5.90;;
65710;SDS011;52690;54.496;9.030;2023-02-13T11:50:56;8.60;;;5.70;;
65710;SDS011;52690;54.496;9.030;2023-02-13T11:52:56;7.15;;;5.53;;
65710;SDS011;52690;54.496;9.030;2023-02-13T11:54:58;7.70;;;5.22;;
65710;SDS011;52690;54.496;9.030;2023-02-13T11:56:59;7.28;;;4.93;;
65710;SDS011;52690;54.496;9.030;2023-02-13T11:59:00;11.07;;;4.55;;
65710;SDS011;52690;54.496;9.030;2023-02-13T12:01:23;10.23;;;4.60;;
65710;SDS011;52690;54.496;9.030;2023-02-13T12:03:25;6.55;;;4.95;;
65710;SDS011;52690;54.496;9.030;2023-02-13T12:05:26;7.35;;;5.07;;
65710;SDS011;52690;54.496;9.030;2023-02-13T12:07:27;5.60;;;4.22;;
65710;SDS011;52690;54.496;9.030;2023-02-13T12:09:28;7.20;;;4.57;;